KHDE

Details ICAO KHDE
Name BREWSTER FLD
Region United States
Timezone America/Chicago (UTC-5.0)
Plans Departing 0
Arriving 2
Stats Elevation 2,313 ft / 705 m (AMSL)
Location 40.451052° -99.335154°
Runways 2
Magnetic Variation 4.877° E
Sunrise 2018-05-23 11:15:45 UTC / 2018-05-23 06:15:45 Local
Sunset 2018-05-24 01:55:20 UTC / 2018-05-23 20:55:20 Local
Advertisement - Login to hide

Runways

ID Width Length Bearing (true) Bearing (mag) Surface Threshold Offset Overrun Length
11 299 ft / 91 m 2,921 ft / 890 m 126.50° 121.62° Grass 0 ft / 0 m 0 ft / 0 m
18 49 ft / 15 m 4,702 ft / 1,433 m 9.60° 4.72° Asphalt 0 ft / 0 m 0 ft / 0 m
29 299 ft / 91 m 2,921 ft / 890 m 306.50° 301.62° Grass 0 ft / 0 m 0 ft / 0 m
36 49 ft / 15 m 4,702 ft / 1,433 m 189.60° 184.72° Asphalt 0 ft / 0 m 0 ft / 0 m

Map

Weather


0- 5 10 15 20 25 30 35+ Temperature / ° C

Clouds and Precipitation
Forecast for 2018-05-23 18:00 UTC. Updated 19 minutes ago

Ground ~20,000 ft ~40,000 ft Winds

METAR

KHDE 231735Z AUTO 18016KT 10SM CLR 27/16 A3000 RMK AO2 T02740157

TAF

Not found

Frequencies

Recorded 121.32 MHz AWOS 3
Unicom 122.80 MHz CTAF/UNICOM
Warning: Do not use this data for real-world aviation or navigation. No guarantee of current accuracy is given.